sensor_id;sensor_type;location;lat;lon;timestamp;P1;durP1;ratioP1;P2;durP2;ratioP2
53751;SDS011;41095;53.090;6.692;2022-07-17T00:00:50;5.28;;;1.55;;
53751;SDS011;41095;53.090;6.692;2022-07-17T00:03:16;1.48;;;1.30;;
53751;SDS011;41095;53.090;6.692;2022-07-17T00:05:43;2.75;;;1.30;;
53751;SDS011;41095;53.090;6.692;2022-07-17T00:08:10;5.10;;;1.48;;
53751;SDS011;41095;53.090;6.692;2022-07-17T00:10:37;2.53;;;1.55;;
53751;SDS011;41095;53.090;6.692;2022-07-17T00:13:06;3.53;;;1.50;;
53751;SDS011;41095;53.090;6.692;2022-07-17T00:15:32;3.00;;;2.40;;
53751;SDS011;41095;53.090;6.692;2022-07-17T00:17:58;2.47;;;1.58;;
53751;SDS011;41095;53.090;6.692;2022-07-17T00:20:24;2.65;;;1.77;;
53751;SDS011;41095;53.090;6.692;2022-07-17T00:22:54;4.85;;;1.70;;
53751;SDS011;41095;53.090;6.692;2022-07-17T00:25:21;3.40;;;2.42;;
53751;SDS011;41095;53.090;6.692;2022-07-17T00:27:47;2.63;;;1.70;;
53751;SDS011;41095;53.090;6.692;2022-07-17T00:30:13;4.07;;;1.83;;
53751;SDS011;41095;53.090;6.692;2022-07-17T00:32:39;5.38;;;1.88;;
53751;SDS011;41095;53.090;6.692;2022-07-17T00:35:05;3.03;;;1.88;;
53751;SDS011;41095;53.090;6.692;2022-07-17T00:37:37;4.00;;;1.80;;
53751;SDS011;41095;53.090;6.692;2022-07-17T00:40:05;2.33;;;1.90;;
53751;SDS011;41095;53.090;6.692;2022-07-17T00:42:32;4.22;;;1.90;;
53751;SDS011;41095;53.090;6.692;2022-07-17T00:44:57;3.95;;;2.05;;
53751;SDS011;41095;53.090;6.692;2022-07-17T00:47:23;4.80;;;1.80;;
53751;SDS011;41095;53.090;6.692;2022-07-17T00:49:49;2.15;;;1.45;;
53751;SDS011;41095;53.090;6.692;2022-07-17T00:52:15;5.10;;;2.08;;
53751;SDS011;41095;53.090;6.692;2022-07-17T00:54:42;2.88;;;1.98;;
53751;SDS011;41095;53.090;6.692;2022-07-17T00:57:13;2.92;;;2.20;;
53751;SDS011;41095;53.090;6.692;2022-07-17T00:59:40;6.65;;;2.80;;
53751;SDS011;41095;53.090;6.692;2022-07-17T01:02:07;3.08;;;2.05;;
53751;SDS011;41095;53.090;6.692;2022-07-17T01:04:35;2.83;;;1.90;;
53751;SDS011;41095;53.090;6.692;2022-07-17T01:07:02;3.15;;;2.00;;
53751;SDS011;41095;53.090;6.692;2022-07-17T01:09:29;4.45;;;2.00;;
53751;SDS011;41095;53.090;6.692;2022-07-17T01:11:56;4.50;;;2.20;;
53751;SDS011;41095;53.090;6.692;2022-07-17T01:14:22;1.88;;;1.77;;
53751;SDS011;41095;53.090;6.692;2022-07-17T01:16:50;4.50;;;1.75;;
53751;SDS011;41095;53.090;6.692;2022-07-17T01:19:17;1.63;;;1.52;;
53751;SDS011;41095;53.090;6.692;2022-07-17T01:21:44;4.22;;;2.17;;
53751;SDS011;41095;53.090;6.692;2022-07-17T01:24:12;3.03;;;1.65;;
53751;SDS011;41095;53.090;6.692;2022-07-17T01:26:44;4.43;;;2.17;;
53751;SDS011;41095;53.090;6.692;2022-07-17T01:29:12;2.90;;;1.70;;
53751;SDS011;41095;53.090;6.692;2022-07-17T01:31:39;4.72;;;1.70;;
53751;SDS011;41095;53.090;6.692;2022-07-17T01:34:05;3.38;;;2.13;;
53751;SDS011;41095;53.090;6.692;2022-07-17T01:36:32;3.70;;;1.83;;
53751;SDS011;41095;53.090;6.692;2022-07-17T01:38:58;2.22;;;1.80;;
53751;SDS011;41095;53.090;6.692;2022-07-17T01:41:24;4.20;;;2.38;;
53751;SDS011;41095;53.090;6.692;2022-07-17T01:43:49;2.75;;;2.03;;
53751;SDS011;41095;53.090;6.692;2022-07-17T01:46:15;4.63;;;1.85;;
53751;SDS011;41095;53.090;6.692;2022-07-17T01:48:41;3.88;;;1.75;;
53751;SDS011;41095;53.090;6.692;2022-07-17T01:51:07;1.67;;;1.40;;
53751;SDS011;41095;53.090;6.692;2022-07-17T01:53:32;2.85;;;1.75;;
53751;SDS011;41095;53.090;6.692;2022-07-17T01:55:58;2.10;;;1.90;;
53751;SDS011;41095;53.090;6.692;2022-07-17T01:58:24;2.42;;;1.58;;
53751;SDS011;41095;53.090;6.692;2022-07-17T02:00:50;3.38;;;1.73;;
53751;SDS011;41095;53.090;6.692;2022-07-17T02:03:17;3.78;;;1.63;;
53751;SDS011;41095;53.090;6.692;2022-07-17T02:05:44;3.03;;;1.98;;
53751;SDS011;41095;53.090;6.692;2022-07-17T02:08:10;2.50;;;1.67;;
53751;SDS011;41095;53.090;6.692;2022-07-17T02:10:35;2.00;;;1.80;;
53751;SDS011;41095;53.090;6.692;2022-07-17T02:13:01;3.55;;;2.30;;
53751;SDS011;41095;53.090;6.692;2022-07-17T02:15:27;3.95;;;1.80;;
53751;SDS011;41095;53.090;6.692;2022-07-17T02:17:53;3.47;;;1.92;;
53751;SDS011;41095;53.090;6.692;2022-07-17T02:20:19;2.33;;;1.77;;
53751;SDS011;41095;53.090;6.692;2022-07-17T02:22:45;2.95;;;2.60;;
53751;SDS011;41095;53.090;6.692;2022-07-17T02:25:11;3.38;;;2.17;;
53751;SDS011;41095;53.090;6.692;2022-07-17T02:27:38;2.58;;;1.70;;
53751;SDS011;41095;53.090;6.692;2022-07-17T02:30:06;3.47;;;1.83;;
53751;SDS011;41095;53.090;6.692;2022-07-17T02:32:34;3.92;;;1.60;;
53751;SDS011;41095;53.090;6.692;2022-07-17T02:34:59;2.67;;;2.40;;
53751;SDS011;41095;53.090;6.692;2022-07-17T02:37:25;1.88;;;1.60;;
53751;SDS011;41095;53.090;6.692;2022-07-17T02:39:51;2.38;;;1.90;;
53751;SDS011;41095;53.090;6.692;2022-07-17T02:42:23;3.85;;;2.33;;
53751;SDS011;41095;53.090;6.692;2022-07-17T02:44:50;5.00;;;1.95;;
53751;SDS011;41095;53.090;6.692;2022-07-17T02:47:20;8.23;;;2.58;;
53751;SDS011;41095;53.090;6.692;2022-07-17T02:49:46;2.05;;;1.85;;
53751;SDS011;41095;53.090;6.692;2022-07-17T02:52:12;2.55;;;1.67;;
53751;SDS011;41095;53.090;6.692;2022-07-17T02:54:38;2.53;;;2.30;;
53751;SDS011;41095;53.090;6.692;2022-07-17T02:57:03;3.70;;;1.90;;
53751;SDS011;41095;53.090;6.692;2022-07-17T02:59:29;3.25;;;2.05;;
53751;SDS011;41095;53.090;6.692;2022-07-17T03:01:55;2.13;;;1.92;;
53751;SDS011;41095;53.090;6.692;2022-07-17T03:04:20;4.72;;;2.17;;
53751;SDS011;41095;53.090;6.692;2022-07-17T03:06:46;2.55;;;1.98;;
53751;SDS011;41095;53.090;6.692;2022-07-17T03:09:12;3.22;;;2.22;;
53751;SDS011;41095;53.090;6.692;2022-07-17T03:11:37;2.55;;;2.33;;
53751;SDS011;41095;53.090;6.692;2022-07-17T03:14:03;3.30;;;1.73;;
53751;SDS011;41095;53.090;6.692;2022-07-17T03:16:29;3.75;;;2.20;;
53751;SDS011;41095;53.090;6.692;2022-07-17T03:18:54;3.95;;;1.98;;
53751;SDS011;41095;53.090;6.692;2022-07-17T03:21:20;3.72;;;2.00;;
53751;SDS011;41095;53.090;6.692;2022-07-17T03:23:46;3.35;;;2.28;;
53751;SDS011;41095;53.090;6.692;2022-07-17T03:26:11;7.30;;;2.13;;
53751;SDS011;41095;53.090;6.692;2022-07-17T03:28:37;2.90;;;1.98;;
53751;SDS011;41095;53.090;6.692;2022-07-17T03:31:03;3.17;;;1.83;;
53751;SDS011;41095;53.090;6.692;2022-07-17T03:33:28;2.60;;;2.38;;
53751;SDS011;41095;53.090;6.692;2022-07-17T03:35:54;2.42;;;2.10;;
53751;SDS011;41095;53.090;6.692;2022-07-17T03:38:21;3.13;;;2.10;;
53751;SDS011;41095;53.090;6.692;2022-07-17T03:40:46;2.85;;;1.98;;
53751;SDS011;41095;53.090;6.692;2022-07-17T03:43:12;2.78;;;1.77;;
53751;SDS011;41095;53.090;6.692;2022-07-17T03:45:39;3.53;;;2.28;;
53751;SDS011;41095;53.090;6.692;2022-07-17T03:48:05;3.63;;;2.45;;
53751;SDS011;41095;53.090;6.692;2022-07-17T03:50:30;4.10;;;1.95;;
53751;SDS011;41095;53.090;6.692;2022-07-17T03:52:56;3.30;;;2.28;;
53751;SDS011;41095;53.090;6.692;2022-07-17T03:55:22;2.85;;;1.65;;
53751;SDS011;41095;53.090;6.692;2022-07-17T03:57:47;5.10;;;2.30;;
53751;SDS011;41095;53.090;6.692;2022-07-17T04:00:13;2.47;;;1.95;;
53751;SDS011;41095;53.090;6.692;2022-07-17T04:02:40;2.63;;;2.03;;
53751;SDS011;41095;53.090;6.692;2022-07-17T04:05:06;1.95;;;1.77;;
53751;SDS011;41095;53.090;6.692;2022-07-17T04:07:38;3.28;;;1.98;;
53751;SDS011;41095;53.090;6.692;2022-07-17T04:10:05;3.80;;;2.38;;
53751;SDS011;41095;53.090;6.692;2022-07-17T04:12:32;4.05;;;2.20;;
53751;SDS011;41095;53.090;6.692;2022-07-17T04:14:58;4.60;;;1.98;;
53751;SDS011;41095;53.090;6.692;2022-07-17T04:17:24;3.15;;;2.60;;
53751;SDS011;41095;53.090;6.692;2022-07-17T04:19:50;3.28;;;1.98;;
53751;SDS011;41095;53.090;6.692;2022-07-17T04:22:16;2.53;;;2.15;;
53751;SDS011;41095;53.090;6.692;2022-07-17T04:24:42;3.80;;;1.90;;
53751;SDS011;41095;53.090;6.692;2022-07-17T04:27:08;4.43;;;2.30;;
53751;SDS011;41095;53.090;6.692;2022-07-17T04:29:34;3.10;;;2.00;;
53751;SDS011;41095;53.090;6.692;2022-07-17T04:32:00;3.90;;;2.70;;
53751;SDS011;41095;53.090;6.692;2022-07-17T04:34:26;3.65;;;2.80;;
53751;SDS011;41095;53.090;6.692;2022-07-17T04:36:52;3.20;;;2.40;;
53751;SDS011;41095;53.090;6.692;2022-07-17T04:39:18;3.35;;;2.40;;
53751;SDS011;41095;53.090;6.692;2022-07-17T04:41:44;3.92;;;2.13;;
53751;SDS011;41095;53.090;6.692;2022-07-17T04:44:09;2.78;;;2.50;;
53751;SDS011;41095;53.090;6.692;2022-07-17T04:46:35;4.53;;;2.75;;
53751;SDS011;41095;53.090;6.692;2022-07-17T04:49:01;4.57;;;2.80;;
53751;SDS011;41095;53.090;6.692;2022-07-17T04:51:27;3.50;;;2.83;;
53751;SDS011;41095;53.090;6.692;2022-07-17T04:53:52;4.22;;;2.65;;
53751;SDS011;41095;53.090;6.692;2022-07-17T04:56:18;8.38;;;2.88;;
53751;SDS011;41095;53.090;6.692;2022-07-17T04:58:44;2.58;;;2.30;;
53751;SDS011;41095;53.090;6.692;2022-07-17T05:01:09;5.50;;;2.42;;
53751;SDS011;41095;53.090;6.692;2022-07-17T05:03:35;6.13;;;2.70;;
53751;SDS011;41095;53.090;6.692;2022-07-17T05:06:03;4.20;;;2.45;;
53751;SDS011;41095;53.090;6.692;2022-07-17T05:08:28;3.63;;;2.60;;
53751;SDS011;41095;53.090;6.692;2022-07-17T05:10:54;3.22;;;2.20;;
53751;SDS011;41095;53.090;6.692;2022-07-17T05:13:20;5.75;;;2.92;;
53751;SDS011;41095;53.090;6.692;2022-07-17T05:15:45;3.50;;;1.80;;
53751;SDS011;41095;53.090;6.692;2022-07-17T05:18:11;6.30;;;3.33;;
53751;SDS011;41095;53.090;6.692;2022-07-17T05:20:39;3.72;;;2.55;;
53751;SDS011;41095;53.090;6.692;2022-07-17T05:23:05;4.50;;;2.30;;
53751;SDS011;41095;53.090;6.692;2022-07-17T05:25:31;6.35;;;2.90;;
53751;SDS011;41095;53.090;6.692;2022-07-17T05:27:57;4.97;;;2.58;;
53751;SDS011;41095;53.090;6.692;2022-07-17T05:30:23;5.63;;;2.40;;
53751;SDS011;41095;53.090;6.692;2022-07-17T05:32:49;2.50;;;2.30;;
53751;SDS011;41095;53.090;6.692;2022-07-17T05:35:14;4.75;;;1.83;;
53751;SDS011;41095;53.090;6.692;2022-07-17T05:37:40;4.90;;;1.98;;
53751;SDS011;41095;53.090;6.692;2022-07-17T05:40:06;2.15;;;1.90;;
53751;SDS011;41095;53.090;6.692;2022-07-17T05:42:32;2.47;;;2.17;;
53751;SDS011;41095;53.090;6.692;2022-07-17T05:44:58;3.15;;;1.73;;
53751;SDS011;41095;53.090;6.692;2022-07-17T05:47:24;2.30;;;1.52;;
53751;SDS011;41095;53.090;6.692;2022-07-17T05:49:50;2.58;;;2.17;;
53751;SDS011;41095;53.090;6.692;2022-07-17T05:52:16;3.67;;;2.08;;
53751;SDS011;41095;53.090;6.692;2022-07-17T05:54:41;2.70;;;2.00;;
53751;SDS011;41095;53.090;6.692;2022-07-17T05:57:07;2.22;;;1.60;;
53751;SDS011;41095;53.090;6.692;2022-07-17T05:59:33;3.17;;;1.40;;
53751;SDS011;41095;53.090;6.692;2022-07-17T06:01:59;2.80;;;1.75;;
53751;SDS011;41095;53.090;6.692;2022-07-17T06:04:25;6.90;;;1.80;;
53751;SDS011;41095;53.090;6.692;2022-07-17T06:06:51;2.90;;;1.67;;
53751;SDS011;41095;53.090;6.692;2022-07-17T06:09:17;2.58;;;1.70;;
53751;SDS011;41095;53.090;6.692;2022-07-17T06:11:42;4.70;;;1.65;;
53751;SDS011;41095;53.090;6.692;2022-07-17T06:14:08;2.92;;;1.40;;
53751;SDS011;41095;53.090;6.692;2022-07-17T06:16:34;1.88;;;1.40;;
53751;SDS011;41095;53.090;6.692;2022-07-17T06:18:59;2.13;;;1.50;;
53751;SDS011;41095;53.090;6.692;2022-07-17T06:21:25;3.28;;;1.30;;
53751;SDS011;41095;53.090;6.692;2022-07-17T06:23:51;2.08;;;1.75;;
53751;SDS011;41095;53.090;6.692;2022-07-17T06:26:16;1.90;;;1.23;;
53751;SDS011;41095;53.090;6.692;2022-07-17T06:28:42;4.53;;;1.50;;
53751;SDS011;41095;53.090;6.692;2022-07-17T06:31:08;2.75;;;1.35;;
53751;SDS011;41095;53.090;6.692;2022-07-17T06:33:33;2.67;;;1.83;;
53751;SDS011;41095;53.090;6.692;2022-07-17T06:35:59;3.33;;;1.42;;
53751;SDS011;41095;53.090;6.692;2022-07-17T06:38:25;3.10;;;1.40;;
53751;SDS011;41095;53.090;6.692;2022-07-17T06:40:51;1.13;;;1.00;;
53751;SDS011;41095;53.090;6.692;2022-07-17T06:43:17;1.92;;;1.27;;
53751;SDS011;41095;53.090;6.692;2022-07-17T06:45:43;4.20;;;1.50;;
53751;SDS011;41095;53.090;6.692;2022-07-17T06:48:08;1.25;;;1.15;;
53751;SDS011;41095;53.090;6.692;2022-07-17T06:50:34;5.22;;;1.60;;
53751;SDS011;41095;53.090;6.692;2022-07-17T06:53:00;3.58;;;1.10;;
53751;SDS011;41095;53.090;6.692;2022-07-17T06:55:26;4.07;;;1.42;;
53751;SDS011;41095;53.090;6.692;2022-07-17T06:57:52;3.15;;;1.88;;
53751;SDS011;41095;53.090;6.692;2022-07-17T07:00:17;3.85;;;1.27;;
53751;SDS011;41095;53.090;6.692;2022-07-17T07:02:43;4.03;;;1.27;;
53751;SDS011;41095;53.090;6.692;2022-07-17T07:05:09;4.38;;;1.50;;
53751;SDS011;41095;53.090;6.692;2022-07-17T07:07:35;3.47;;;1.63;;
53751;SDS011;41095;53.090;6.692;2022-07-17T07:10:01;2.63;;;1.42;;
53751;SDS011;41095;53.090;6.692;2022-07-17T07:12:27;3.03;;;1.25;;
53751;SDS011;41095;53.090;6.692;2022-07-17T07:14:53;2.47;;;1.65;;
53751;SDS011;41095;53.090;6.692;2022-07-17T07:17:18;3.17;;;1.42;;
53751;SDS011;41095;53.090;6.692;2022-07-17T07:19:45;5.88;;;1.80;;
53751;SDS011;41095;53.090;6.692;2022-07-17T07:22:11;6.18;;;1.73;;
53751;SDS011;41095;53.090;6.692;2022-07-17T07:24:37;3.90;;;1.50;;
53751;SDS011;41095;53.090;6.692;2022-07-17T07:27:02;4.55;;;1.65;;
53751;SDS011;41095;53.090;6.692;2022-07-17T07:29:28;4.00;;;1.60;;
53751;SDS011;41095;53.090;6.692;2022-07-17T07:31:54;2.65;;;1.17;;
53751;SDS011;41095;53.090;6.692;2022-07-17T07:34:20;2.97;;;1.38;;
53751;SDS011;41095;53.090;6.692;2022-07-17T07:36:46;2.30;;;1.38;;
53751;SDS011;41095;53.090;6.692;2022-07-17T07:39:12;3.50;;;1.40;;
53751;SDS011;41095;53.090;6.692;2022-07-17T07:41:37;3.65;;;1.58;;
53751;SDS011;41095;53.090;6.692;2022-07-17T07:44:03;5.85;;;1.50;;
53751;SDS011;41095;53.090;6.692;2022-07-17T07:46:29;1.83;;;1.23;;
53751;SDS011;41095;53.090;6.692;2022-07-17T07:48:55;4.28;;;1.83;;
53751;SDS011;41095;53.090;6.692;2022-07-17T07:51:20;3.50;;;1.60;;
53751;SDS011;41095;53.090;6.692;2022-07-17T07:53:46;2.47;;;1.50;;
53751;SDS011;41095;53.090;6.692;2022-07-17T07:56:12;4.55;;;1.42;;
53751;SDS011;41095;53.090;6.692;2022-07-17T07:58:37;2.13;;;1.15;;
53751;SDS011;41095;53.090;6.692;2022-07-17T08:01:03;3.20;;;1.70;;
53751;SDS011;41095;53.090;6.692;2022-07-17T08:03:29;3.72;;;1.65;;
53751;SDS011;41095;53.090;6.692;2022-07-17T08:05:54;4.75;;;1.50;;
53751;SDS011;41095;53.090;6.692;2022-07-17T08:08:20;4.45;;;1.10;;
53751;SDS011;41095;53.090;6.692;2022-07-17T08:10:46;2.80;;;1.33;;
53751;SDS011;41095;53.090;6.692;2022-07-17T08:13:12;1.58;;;1.35;;
53751;SDS011;41095;53.090;6.692;2022-07-17T08:15:37;2.90;;;1.30;;
53751;SDS011;41095;53.090;6.692;2022-07-17T08:18:03;3.40;;;1.30;;
53751;SDS011;41095;53.090;6.692;2022-07-17T08:20:29;4.93;;;1.33;;
53751;SDS011;41095;53.090;6.692;2022-07-17T08:22:54;4.68;;;1.42;;
53751;SDS011;41095;53.090;6.692;2022-07-17T08:25:20;1.77;;;1.33;;
53751;SDS011;41095;53.090;6.692;2022-07-17T08:27:46;3.65;;;1.25;;
53751;SDS011;41095;53.090;6.692;2022-07-17T08:30:12;7.13;;;1.83;;
53751;SDS011;41095;53.090;6.692;2022-07-17T08:32:39;1.77;;;1.20;;
53751;SDS011;41095;53.090;6.692;2022-07-17T08:35:06;3.10;;;1.20;;
53751;SDS011;41095;53.090;6.692;2022-07-17T08:37:42;1.90;;;1.00;;
53751;SDS011;41095;53.090;6.692;2022-07-17T08:40:08;3.17;;;1.25;;
53751;SDS011;41095;53.090;6.692;2022-07-17T08:42:39;1.92;;;1.27;;
53751;SDS011;41095;53.090;6.692;2022-07-17T08:45:08;2.20;;;1.00;;
53751;SDS011;41095;53.090;6.692;2022-07-17T08:47:35;4.05;;;1.25;;
53751;SDS011;41095;53.090;6.692;2022-07-17T08:50:02;2.13;;;1.23;;
53751;SDS011;41095;53.090;6.692;2022-07-17T08:52:28;3.25;;;1.27;;
53751;SDS011;41095;53.090;6.692;2022-07-17T08:54:54;5.30;;;1.73;;
53751;SDS011;41095;53.090;6.692;2022-07-17T08:57:20;1.55;;;1.00;;
53751;SDS011;41095;53.090;6.692;2022-07-17T08:59:49;2.58;;;1.20;;
53751;SDS011;41095;53.090;6.692;2022-07-17T09:02:15;3.20;;;1.10;;
53751;SDS011;41095;53.090;6.692;2022-07-17T09:04:40;2.00;;;1.15;;
53751;SDS011;41095;53.090;6.692;2022-07-17T09:07:06;5.18;;;1.30;;
53751;SDS011;41095;53.090;6.692;2022-07-17T09:09:32;3.42;;;1.05;;
53751;SDS011;41095;53.090;6.692;2022-07-17T09:11:59;1.75;;;1.20;;
53751;SDS011;41095;53.090;6.692;2022-07-17T09:14:35;3.33;;;1.27;;
53751;SDS011;41095;53.090;6.692;2022-07-17T09:17:05;2.28;;;1.23;;
53751;SDS011;41095;53.090;6.692;2022-07-17T09:19:33;5.30;;;2.10;;
53751;SDS011;41095;53.090;6.692;2022-07-17T09:22:10;2.15;;;1.10;;
53751;SDS011;41095;53.090;6.692;2022-07-17T09:27:33;3.92;;;1.65;;
53751;SDS011;41095;53.090;6.692;2022-07-17T09:30:01;1.02;;;0.85;;
53751;SDS011;41095;53.090;6.692;2022-07-17T09:32:38;0.82;;;0.82;;
53751;SDS011;41095;53.090;6.692;2022-07-17T09:35:07;3.92;;;1.52;;
53751;SDS011;41095;53.090;6.692;2022-07-17T09:37:35;1.38;;;1.10;;
53751;SDS011;41095;53.090;6.692;2022-07-17T09:40:02;3.40;;;1.17;;
53751;SDS011;41095;53.090;6.692;2022-07-17T09:42:34;2.47;;;1.52;;
53751;SDS011;41095;53.090;6.692;2022-07-17T09:47:28;2.13;;;1.20;;
53751;SDS011;41095;53.090;6.692;2022-07-17T09:49:55;1.83;;;1.00;;
53751;SDS011;41095;53.090;6.692;2022-07-17T09:52:22;3.75;;;1.33;;
53751;SDS011;41095;53.090;6.692;2022-07-17T09:54:51;2.65;;;1.13;;
53751;SDS011;41095;53.090;6.692;2022-07-17T09:57:20;4.07;;;1.55;;
53751;SDS011;41095;53.090;6.692;2022-07-17T09:59:50;2.97;;;0.90;;
53751;SDS011;41095;53.090;6.692;2022-07-17T10:02:19;2.08;;;1.10;;
53751;SDS011;41095;53.090;6.692;2022-07-17T10:04:45;2.92;;;1.10;;
53751;SDS011;41095;53.090;6.692;2022-07-17T10:07:12;2.42;;;1.23;;
53751;SDS011;41095;53.090;6.692;2022-07-17T10:09:38;2.63;;;1.40;;
53751;SDS011;41095;53.090;6.692;2022-07-17T10:12:05;1.85;;;1.00;;
53751;SDS011;41095;53.090;6.692;2022-07-17T10:14:32;1.60;;;1.05;;
53751;SDS011;41095;53.090;6.692;2022-07-17T10:17:05;1.25;;;0.98;;
53751;SDS011;41095;53.090;6.692;2022-07-17T10:19:52;1.25;;;0.90;;
53751;SDS011;41095;53.090;6.692;2022-07-17T10:22:19;2.25;;;1.05;;
53751;SDS011;41095;53.090;6.692;2022-07-17T10:24:47;2.20;;;1.38;;
53751;SDS011;41095;53.090;6.692;2022-07-17T10:27:18;0.98;;;0.88;;
53751;SDS011;41095;53.090;6.692;2022-07-17T10:29:44;3.80;;;1.27;;
53751;SDS011;41095;53.090;6.692;2022-07-17T10:32:14;8.50;;;1.40;;
53751;SDS011;41095;53.090;6.692;2022-07-17T10:34:46;2.63;;;1.52;;
53751;SDS011;41095;53.090;6.692;2022-07-17T10:37:38;3.05;;;1.40;;
53751;SDS011;41095;53.090;6.692;2022-07-17T10:40:02;3.15;;;1.33;;
53751;SDS011;41095;53.090;6.692;2022-07-17T10:45:11;1.42;;;1.25;;
53751;SDS011;41095;53.090;6.692;2022-07-17T10:48:13;2.22;;;1.10;;
53751;SDS011;41095;53.090;6.692;2022-07-17T10:50:48;2.40;;;1.30;;
53751;SDS011;41095;53.090;6.692;2022-07-17T10:53:22;1.25;;;1.10;;
53751;SDS011;41095;53.090;6.692;2022-07-17T10:55:56;1.85;;;1.00;;
53751;SDS011;41095;53.090;6.692;2022-07-17T10:58:24;3.25;;;1.42;;
53751;SDS011;41095;53.090;6.692;2022-07-17T11:01:07;1.88;;;1.00;;
53751;SDS011;41095;53.090;6.692;2022-07-17T11:11:14;7.50;;;1.50;;
53751;SDS011;41095;53.090;6.692;2022-07-17T11:13:41;2.25;;;1.23;;
53751;SDS011;41095;53.090;6.692;2022-07-17T11:16:07;2.28;;;1.50;;
53751;SDS011;41095;53.090;6.692;2022-07-17T11:18:33;1.88;;;1.38;;
53751;SDS011;41095;53.090;6.692;2022-07-17T11:21:00;1.85;;;1.20;;
53751;SDS011;41095;53.090;6.692;2022-07-17T11:23:28;2.97;;;1.35;;
53751;SDS011;41095;53.090;6.692;2022-07-17T11:28:42;1.60;;;1.15;;
53751;SDS011;41095;53.090;6.692;2022-07-17T11:31:25;3.20;;;1.83;;
53751;SDS011;41095;53.090;6.692;2022-07-17T11:33:54;1.98;;;1.38;;
53751;SDS011;41095;53.090;6.692;2022-07-17T11:38:56;3.63;;;1.63;;
53751;SDS011;41095;53.090;6.692;2022-07-17T11:44:19;1.60;;;1.38;;
53751;SDS011;41095;53.090;6.692;2022-07-17T11:46:47;4.78;;;1.83;;
53751;SDS011;41095;53.090;6.692;2022-07-17T11:49:24;1.67;;;1.33;;
53751;SDS011;41095;53.090;6.692;2022-07-17T11:51:51;1.58;;;1.20;;
53751;SDS011;41095;53.090;6.692;2022-07-17T11:54:19;2.88;;;1.55;;
53751;SDS011;41095;53.090;6.692;2022-07-17T11:56:55;4.03;;;1.42;;
53751;SDS011;41095;53.090;6.692;2022-07-17T11:59:36;3.25;;;1.45;;
53751;SDS011;41095;53.090;6.692;2022-07-17T12:02:08;4.40;;;1.65;;
53751;SDS011;41095;53.090;6.692;2022-07-17T12:04:35;1.92;;;1.30;;
53751;SDS011;41095;53.090;6.692;2022-07-17T12:07:02;1.50;;;1.38;;
53751;SDS011;41095;53.090;6.692;2022-07-17T12:09:30;2.35;;;1.40;;
53751;SDS011;41095;53.090;6.692;2022-07-17T12:12:00;2.30;;;1.40;;
53751;SDS011;41095;53.090;6.692;2022-07-17T12:14:27;1.90;;;1.63;;
53751;SDS011;41095;53.090;6.692;2022-07-17T12:17:01;3.83;;;1.33;;
53751;SDS011;41095;53.090;6.692;2022-07-17T12:19:29;2.35;;;1.77;;
53751;SDS011;41095;53.090;6.692;2022-07-17T12:21:56;3.10;;;1.50;;
53751;SDS011;41095;53.090;6.692;2022-07-17T12:24:46;1.98;;;1.50;;
53751;SDS011;41095;53.090;6.692;2022-07-17T12:27:12;3.65;;;1.80;;
53751;SDS011;41095;53.090;6.692;2022-07-17T12:29:42;2.97;;;1.63;;
53751;SDS011;41095;53.090;6.692;2022-07-17T12:32:09;2.97;;;1.80;;
53751;SDS011;41095;53.090;6.692;2022-07-17T12:34:37;2.10;;;1.90;;
53751;SDS011;41095;53.090;6.692;2022-07-17T12:37:10;3.40;;;1.45;;
53751;SDS011;41095;53.090;6.692;2022-07-17T12:39:36;4.63;;;2.25;;
53751;SDS011;41095;53.090;6.692;2022-07-17T12:42:02;3.28;;;1.90;;
53751;SDS011;41095;53.090;6.692;2022-07-17T12:44:28;5.35;;;2.30;;
53751;SDS011;41095;53.090;6.692;2022-07-17T12:46:54;2.10;;;1.52;;
53751;SDS011;41095;53.090;6.692;2022-07-17T12:49:20;3.22;;;2.03;;
53751;SDS011;41095;53.090;6.692;2022-07-17T12:51:46;4.18;;;1.92;;
53751;SDS011;41095;53.090;6.692;2022-07-17T12:54:12;2.97;;;2.22;;
53751;SDS011;41095;53.090;6.692;2022-07-17T12:56:38;2.78;;;1.85;;
53751;SDS011;41095;53.090;6.692;2022-07-17T12:59:03;3.40;;;2.15;;
53751;SDS011;41095;53.090;6.692;2022-07-17T13:01:29;2.47;;;2.00;;
53751;SDS011;41095;53.090;6.692;2022-07-17T13:03:55;2.33;;;1.75;;
53751;SDS011;41095;53.090;6.692;2022-07-17T13:06:21;5.25;;;2.17;;
53751;SDS011;41095;53.090;6.692;2022-07-17T13:08:47;5.95;;;2.78;;
53751;SDS011;41095;53.090;6.692;2022-07-17T13:11:12;3.20;;;2.58;;
53751;SDS011;41095;53.090;6.692;2022-07-17T13:13:38;4.07;;;2.90;;
53751;SDS011;41095;53.090;6.692;2022-07-17T13:16:04;3.63;;;2.47;;
53751;SDS011;41095;53.090;6.692;2022-07-17T13:18:30;5.18;;;3.20;;
53751;SDS011;41095;53.090;6.692;2022-07-17T13:20:56;3.72;;;2.80;;
53751;SDS011;41095;53.090;6.692;2022-07-17T13:23:21;3.25;;;2.38;;
53751;SDS011;41095;53.090;6.692;2022-07-17T13:25:48;2.90;;;2.35;;
53751;SDS011;41095;53.090;6.692;2022-07-17T13:28:14;5.57;;;2.80;;
53751;SDS011;41095;53.090;6.692;2022-07-17T13:30:39;3.78;;;2.55;;
53751;SDS011;41095;53.090;6.692;2022-07-17T13:33:05;4.10;;;2.20;;
53751;SDS011;41095;53.090;6.692;2022-07-17T13:35:31;6.53;;;2.85;;
53751;SDS011;41095;53.090;6.692;2022-07-17T13:37:57;4.82;;;3.35;;
53751;SDS011;41095;53.090;6.692;2022-07-17T13:40:25;5.05;;;2.80;;
53751;SDS011;41095;53.090;6.692;2022-07-17T13:42:51;5.30;;;2.90;;
53751;SDS011;41095;53.090;6.692;2022-07-17T13:45:17;5.43;;;2.63;;
53751;SDS011;41095;53.090;6.692;2022-07-17T13:47:42;4.65;;;2.83;;
53751;SDS011;41095;53.090;6.692;2022-07-17T13:50:08;4.00;;;2.92;;
53751;SDS011;41095;53.090;6.692;2022-07-17T13:52:35;4.65;;;2.90;;
53751;SDS011;41095;53.090;6.692;2022-07-17T13:55:03;4.80;;;3.08;;
53751;SDS011;41095;53.090;6.692;2022-07-17T13:57:30;4.65;;;3.13;;
53751;SDS011;41095;53.090;6.692;2022-07-17T13:59:56;4.30;;;2.33;;
53751;SDS011;41095;53.090;6.692;2022-07-17T14:02:22;2.83;;;2.42;;
53751;SDS011;41095;53.090;6.692;2022-07-17T14:04:48;3.30;;;2.45;;
53751;SDS011;41095;53.090;6.692;2022-07-17T14:07:14;5.30;;;3.03;;
53751;SDS011;41095;53.090;6.692;2022-07-17T14:09:40;3.15;;;2.45;;
53751;SDS011;41095;53.090;6.692;2022-07-17T14:12:06;3.17;;;2.10;;
53751;SDS011;41095;53.090;6.692;2022-07-17T14:14:33;4.63;;;2.63;;
53751;SDS011;41095;53.090;6.692;2022-07-17T14:17:00;6.47;;;2.40;;
53751;SDS011;41095;53.090;6.692;2022-07-17T14:19:25;3.05;;;2.28;;
53751;SDS011;41095;53.090;6.692;2022-07-17T14:21:51;3.40;;;2.22;;
53751;SDS011;41095;53.090;6.692;2022-07-17T14:24:17;4.32;;;2.50;;
53751;SDS011;41095;53.090;6.692;2022-07-17T14:26:43;3.10;;;2.47;;
53751;SDS011;41095;53.090;6.692;2022-07-17T14:29:09;3.97;;;2.08;;
53751;SDS011;41095;53.090;6.692;2022-07-17T14:31:35;3.42;;;2.00;;
53751;SDS011;41095;53.090;6.692;2022-07-17T14:34:01;3.30;;;2.10;;
53751;SDS011;41095;53.090;6.692;2022-07-17T14:36:27;3.90;;;2.35;;
53751;SDS011;41095;53.090;6.692;2022-07-17T14:38:52;2.58;;;2.15;;
53751;SDS011;41095;53.090;6.692;2022-07-17T14:41:18;3.78;;;2.83;;
53751;SDS011;41095;53.090;6.692;2022-07-17T14:43:44;2.47;;;2.05;;
53751;SDS011;41095;53.090;6.692;2022-07-17T14:46:10;4.40;;;2.75;;
53751;SDS011;41095;53.090;6.692;2022-07-17T14:48:36;2.88;;;2.35;;
53751;SDS011;41095;53.090;6.692;2022-07-17T14:51:02;3.63;;;2.70;;
53751;SDS011;41095;53.090;6.692;2022-07-17T14:53:28;2.50;;;2.30;;
53751;SDS011;41095;53.090;6.692;2022-07-17T14:55:54;5.35;;;2.40;;
53751;SDS011;41095;53.090;6.692;2022-07-17T14:58:19;5.95;;;2.78;;
53751;SDS011;41095;53.090;6.692;2022-07-17T15:00:45;4.43;;;2.20;;
53751;SDS011;41095;53.090;6.692;2022-07-17T15:03:11;3.85;;;2.78;;
53751;SDS011;41095;53.090;6.692;2022-07-17T15:05:37;6.05;;;3.13;;
53751;SDS011;41095;53.090;6.692;2022-07-17T15:08:03;3.85;;;2.50;;
53751;SDS011;41095;53.090;6.692;2022-07-17T15:10:28;2.72;;;2.50;;